Time,TemperatureF,DewpointF,PressureIn,WindDirection,WindDirectionDegrees,WindSpeedMPH,WindSpeedGustMPH,Humidity,HourlyPrecipIn,Conditions,Clouds,dailyrainin,SoftwareType,DateUTC
2013-11-01 00:13:00,59.7,59.1,29.54,West,270,0.0,-999.0,98,-99.99,,,0.00,Acu-Link.com,2013-11-01 04:13:00,
2013-11-01 00:28:00,59.9,59.3,29.53,ENE,67,0.0,-999.0,98,-99.99,,,0.00,Acu-Link.com,2013-11-01 04:28:00,
2013-11-01 00:43:00,59.9,59.3,29.50,SE,135,1.1,-999.0,98,-99.99,,,0.01,Acu-Link.com,2013-11-01 04:43:00,
2013-11-01 00:59:00,59.9,59.0,29.49,SW,225,2.2,-999.0,97,-99.99,,,0.01,Acu-Link.com,2013-11-01 04:59:00,
2013-11-01 01:14:00,59.9,59.0,29.49,SW,225,0.0,-999.0,97,-99.99,,,0.02,Acu-Link.com,2013-11-01 05:14:00,
2013-11-01 01:29:00,59.9,59.0,29.49,South,180,0.0,-999.0,97,-99.99,,,0.02,Acu-Link.com,2013-11-01 05:29:00,
2013-11-01 01:44:00,60.1,59.2,29.47,WSW,247,0.0,-999.0,97,-99.99,,,0.02,Acu-Link.com,2013-11-01 05:44:00,
2013-11-01 02:00:00,60.1,59.0,29.47,SW,225,0.0,-999.0,96,-99.99,,,0.02,Acu-Link.com,2013-11-01 06:00:00,
2013-11-01 02:15:00,60.1,58.7,29.45,NNE,22,2.7,-999.0,95,-99.99,,,0.02,Acu-Link.com,2013-11-01 06:15:00,
2013-11-01 02:30:00,60.1,58.7,29.42,NNE,22,1.1,-999.0,95,-99.99,,,0.02,Acu-Link.com,2013-11-01 06:30:00,
2013-11-01 02:45:00,60.1,58.7,29.43,West,270,4.2,-999.0,95,-99.99,,,0.02,Acu-Link.com,2013-11-01 06:45:00,
2013-11-01 03:01:00,60.1,58.7,29.42,WSW,247,2.2,-999.0,95,-99.99,,,0.03,Acu-Link.com,2013-11-01 07:01:00,
2013-11-01 03:16:00,60.1,58.7,29.42,WSW,247,3.2,-999.0,95,-99.99,,,0.03,Acu-Link.com,2013-11-01 07:16:00,
2013-11-01 03:32:00,59.9,58.5,29.41,SSW,202,0.0,-999.0,95,-99.99,,,0.04,Acu-Link.com,2013-11-01 07:32:00,
2013-11-01 03:47:00,59.9,58.5,29.39,North,0,3.2,-999.0,95,-99.99,,,0.05,Acu-Link.com,2013-11-01 07:47:00,
2013-11-01 04:02:00,60.1,58.7,29.38,West,270,2.7,-999.0,95,-99.99,,,0.05,Acu-Link.com,2013-11-01 08:02:00,
2013-11-01 04:17:00,60.1,58.7,29.37,South,180,2.2,-999.0,95,-99.99,,,0.05,Acu-Link.com,2013-11-01 08:17:00,
2013-11-01 04:32:00,60.1,59.0,29.36,NNE,22,1.1,-999.0,96,-99.99,,,0.05,Acu-Link.com,2013-11-01 08:32:00,
2013-11-01 04:47:00,60.3,59.2,29.36,ESE,112,0.0,-999.0,96,-99.99,,,0.05,Acu-Link.com,2013-11-01 08:47:00,
2013-11-01 05:02:00,60.3,59.2,29.35,ESE,112,2.2,-999.0,96,-99.99,,,0.05,Acu-Link.com,2013-11-01 09:02:00,
2013-11-01 05:18:00,60.6,59.5,29.34,ENE,67,2.2,-999.0,96,-99.99,,,0.05,Acu-Link.com,2013-11-01 09:18:00,
2013-11-01 05:33:00,60.8,59.4,29.33,NW,315,2.2,-999.0,95,-99.99,,,0.05,Acu-Link.com,2013-11-01 09:33:00,
2013-11-01 05:48:00,61.2,59.5,29.32,NNE,22,5.3,-999.0,94,-99.99,,,0.05,Acu-Link.com,2013-11-01 09:48:00,
2013-11-01 06:03:00,61.5,59.8,29.31,SW,225,2.7,-999.0,94,-99.99,,,0.05,Acu-Link.com,2013-11-01 10:03:00,
2013-11-01 06:18:00,61.7,60.0,29.31,West,270,1.1,-999.0,94,-99.99,,,0.05,Acu-Link.com,2013-11-01 10:18:00,
2013-11-01 06:33:00,61.9,60.2,29.37,SSW,202,6.3,-999.0,94,-99.99,,,0.06,Acu-Link.com,2013-11-01 10:33:00,
2013-11-01 06:48:00,61.3,59.6,29.35,West,270,1.7,-999.0,94,-99.99,,,0.09,Acu-Link.com,2013-11-01 10:48:00,
2013-11-01 07:04:00,60.8,59.4,29.35,West,270,0.0,-999.0,95,-99.99,,,0.09,Acu-Link.com,2013-11-01 11:04:00,
2013-11-01 07:19:00,60.1,58.7,29.35,ESE,112,0.0,-999.0,95,-99.99,,,0.09,Acu-Link.com,2013-11-01 11:19:00,
2013-11-01 07:35:00,59.7,58.0,29.35,South,180,0.0,-999.0,94,-99.99,,,0.09,Acu-Link.com,2013-11-01 11:35:00,
2013-11-01 07:50:00,59.4,57.7,29.36,West,270,2.2,-999.0,94,-99.99,,,0.09,Acu-Link.com,2013-11-01 11:50:00,
2013-11-01 08:05:00,59.0,57.3,29.37,SSW,202,1.7,-999.0,94,-99.99,,,0.09,Acu-Link.com,2013-11-01 12:05:00,
2013-11-01 08:20:00,58.8,57.1,29.40,South,180,0.0,-999.0,94,-99.99,,,0.09,Acu-Link.com,2013-11-01 12:20:00,
2013-11-01 08:36:00,58.6,56.9,29.39,WNW,292,0.0,-999.0,94,-99.99,,,0.10,Acu-Link.com,2013-11-01 12:36:00,
2013-11-01 08:51:00,58.3,56.9,29.40,SE,135,0.0,-999.0,95,-99.99,,,0.10,Acu-Link.com,2013-11-01 12:51:00,
2013-11-01 09:06:00,58.1,56.7,29.41,SSE,157,0.0,-999.0,95,-99.99,,,0.11,Acu-Link.com,2013-11-01 13:06:00,
2013-11-01 09:21:00,57.7,56.3,29.40,ESE,112,0.0,-999.0,95,-99.99,,,0.11,Acu-Link.com,2013-11-01 13:21:00,
2013-11-01 09:36:00,57.6,55.9,29.41,SSW,202,0.0,-999.0,94,-99.99,,,0.11,Acu-Link.com,2013-11-01 13:36:00,
2013-11-01 09:52:00,58.5,56.8,29.42,South,180,1.7,-999.0,94,-99.99,,,0.11,Acu-Link.com,2013-11-01 13:52:00,
2013-11-01 10:07:00,58.5,56.8,29.43,West,270,2.7,-999.0,94,-99.99,,,0.11,Acu-Link.com,2013-11-01 14:07:00,
2013-11-01 10:22:00,58.6,56.6,29.43,SW,225,0.0,-999.0,93,-99.99,,,0.11,Acu-Link.com,2013-11-01 14:22:00,
2013-11-01 10:37:00,59.7,57.4,29.43,West,270,0.0,-999.0,92,-99.99,,,0.11,Acu-Link.com,2013-11-01 14:37:00,
2013-11-01 10:52:00,61.0,57.7,29.42,SW,225,2.2,-999.0,89,-99.99,,,0.11,Acu-Link.com,2013-11-01 14:52:00,
2013-11-01 11:08:00,61.0,58.0,29.42,SW,225,0.0,-999.0,90,-99.99,,,0.11,Acu-Link.com,2013-11-01 15:08:00,
2013-11-01 11:23:00,60.8,57.5,29.42,WSW,247,0.0,-999.0,89,-99.99,,,0.11,Acu-Link.com,2013-11-01 15:23:00,
2013-11-01 11:38:00,60.6,57.3,29.42,WSW,247,0.0,-999.0,89,-99.99,,,0.11,Acu-Link.com,2013-11-01 15:38:00,
2013-11-01 11:54:00,61.0,57.4,29.43,South,180,0.0,-999.0,88,-99.99,,,0.11,Acu-Link.com,2013-11-01 15:54:00,
2013-11-01 12:09:00,61.7,56.1,29.43,West,270,0.0,-999.0,82,-99.99,,,0.11,Acu-Link.com,2013-11-01 16:09:00,
2013-11-01 12:24:00,63.9,51.5,29.43,West,270,4.2,-999.0,64,-99.99,,,0.11,Acu-Link.com,2013-11-01 16:24:00,
2013-11-01 12:39:00,65.1,51.3,29.43,SW,225,4.2,-999.0,61,-99.99,,,0.11,Acu-Link.com,2013-11-01 16:39:00,
2013-11-01 12:55:00,66.9,49.2,29.43,WSW,247,7.3,-999.0,53,-99.99,,,0.11,Acu-Link.com,2013-11-01 16:55:00,
2013-11-01 13:10:00,66.9,49.7,29.43,West,270,4.7,-999.0,54,-99.99,,,0.11,Acu-Link.com,2013-11-01 17:10:00,
2013-11-01 13:25:00,67.3,48.0,29.43,WNW,292,5.3,-999.0,50,-99.99,,,0.11,Acu-Link.com,2013-11-01 17:25:00,
2013-11-01 13:40:00,68.5,46.3,29.42,West,270,4.2,-999.0,45,-99.99,,,0.11,Acu-Link.com,2013-11-01 17:40:00,
2013-11-01 13:56:00,69.4,46.5,29.42,West,270,3.7,-999.0,44,-99.99,,,0.11,Acu-Link.com,2013-11-01 17:56:00,
2013-11-01 14:11:00,70.0,45.2,29.42,West,270,6.8,-999.0,41,-99.99,,,0.11,Acu-Link.com,2013-11-01 18:11:00,
2013-11-01 14:26:00,69.8,43.0,29.42,WSW,247,5.8,-999.0,38,-99.99,,,0.11,Acu-Link.com,2013-11-01 18:26:00,
2013-11-01 14:41:00,69.4,41.3,29.43,WNW,292,8.9,-999.0,36,-99.99,,,0.11,Acu-Link.com,2013-11-01 18:41:00,
2013-11-01 14:57:00,69.4,41.3,29.43,West,270,5.3,-999.0,36,-99.99,,,0.11,Acu-Link.com,2013-11-01 18:57:00,
2013-11-01 15:12:00,68.7,41.4,29.43,WNW,292,4.2,-999.0,37,-99.99,,,0.11,Acu-Link.com,2013-11-01 19:12:00,
2013-11-01 15:27:00,68.7,42.1,29.44,NW,315,5.8,-999.0,38,-99.99,,,0.11,Acu-Link.com,2013-11-01 19:27:00,
2013-11-01 15:42:00,68.7,42.7,29.44,NNW,337,3.7,-999.0,39,-99.99,,,0.11,Acu-Link.com,2013-11-01 19:42:00,
2013-11-01 15:57:00,68.5,41.9,29.45,SW,225,7.3,-999.0,38,-99.99,,,0.11,Acu-Link.com,2013-11-01 19:57:00,
2013-11-01 16:12:00,68.2,42.3,29.45,West,270,3.2,-999.0,39,-99.99,,,0.11,Acu-Link.com,2013-11-01 20:12:00,
2013-11-01 16:28:00,67.8,41.9,29.46,NNW,337,3.7,-999.0,39,-99.99,,,0.11,Acu-Link.com,2013-11-01 20:28:00,
2013-11-01 16:43:00,67.5,42.3,29.46,West,270,2.2,-999.0,40,-99.99,,,0.11,Acu-Link.com,2013-11-01 20:43:00,
2013-11-01 16:58:00,67.3,42.1,29.47,WSW,247,2.7,-999.0,40,-99.99,,,0.11,Acu-Link.com,2013-11-01 20:58:00,
2013-11-01 17:13:00,66.7,41.6,29.48,West,270,2.2,-999.0,40,-99.99,,,0.11,Acu-Link.com,2013-11-01 21:13:00,
2013-11-01 17:29:00,66.7,41.0,29.49,West,270,2.7,-999.0,39,-99.99,,,0.11,Acu-Link.com,2013-11-01 21:29:00,
2013-11-01 17:44:00,65.1,40.8,29.49,SW,225,2.7,-999.0,41,-99.99,,,0.11,Acu-Link.com,2013-11-01 21:44:00,
2013-11-01 17:59:00,63.7,40.8,29.50,WNW,292,5.3,-999.0,43,-99.99,,,0.11,Acu-Link.com,2013-11-01 21:59:00,
2013-11-01 18:15:00,62.8,40.6,29.51,West,270,1.7,-999.0,44,-99.99,,,0.11,Acu-Link.com,2013-11-01 22:15:00,
2013-11-01 18:30:00,61.5,40.5,29.51,West,270,1.7,-999.0,46,-99.99,,,0.11,Acu-Link.com,2013-11-01 22:30:00,
2013-11-01 18:45:00,60.4,40.6,29.51,West,270,0.0,-999.0,48,-99.99,,,0.11,Acu-Link.com,2013-11-01 22:45:00,
2013-11-01 19:00:00,59.5,40.8,29.52,West,270,1.7,-999.0,50,-99.99,,,0.11,Acu-Link.com,2013-11-01 23:00:00,
2013-11-01 19:16:00,58.8,40.7,29.53,West,270,0.0,-999.0,51,-99.99,,,0.11,Acu-Link.com,2013-11-01 23:16:00,
2013-11-01 19:31:00,57.2,41.2,29.54,West,270,0.0,-999.0,55,-99.99,,,0.11,Acu-Link.com,2013-11-01 23:31:00,
2013-11-01 19:46:00,56.1,41.1,29.55,SSE,157,0.0,-999.0,57,-99.99,,,0.11,Acu-Link.com,2013-11-01 23:46:00,
2013-11-01 20:01:00,55.0,40.9,29.55,West,270,0.0,-999.0,59,-99.99,,,0.11,Acu-Link.com,2013-11-02 00:01:00,
2013-11-01 20:16:00,54.1,41.8,29.55,West,270,0.0,-999.0,63,-99.99,,,0.11,Acu-Link.com,2013-11-02 00:16:00,
2013-11-01 20:31:00,53.6,42.5,29.56,West,270,0.0,-999.0,66,-99.99,,,0.11,Acu-Link.com,2013-11-02 00:31:00,
2013-11-01 20:46:00,52.7,42.4,29.56,SE,135,0.0,-999.0,68,-99.99,,,0.11,Acu-Link.com,2013-11-02 00:46:00,
2013-11-01 21:02:00,52.2,42.7,29.56,SE,135,0.0,-999.0,70,-99.99,,,0.11,Acu-Link.com,2013-11-02 01:02:00,
2013-11-01 21:17:00,51.6,43.2,29.56,SE,135,0.0,-999.0,73,-99.99,,,0.11,Acu-Link.com,2013-11-02 01:17:00,
2013-11-01 21:32:00,51.4,43.0,29.56,SE,135,0.0,-999.0,73,-99.99,,,0.11,Acu-Link.com,2013-11-02 01:32:00,
2013-11-01 21:47:00,50.9,43.3,29.57,SE,135,0.0,-999.0,75,-99.99,,,0.11,Acu-Link.com,2013-11-02 01:47:00,
2013-11-01 22:02:00,50.4,42.8,29.57,SE,135,0.0,-999.0,75,-99.99,,,0.11,Acu-Link.com,2013-11-02 02:02:00,
2013-11-01 22:18:00,49.8,42.5,29.57,SE,135,0.0,-999.0,76,-99.99,,,0.11,Acu-Link.com,2013-11-02 02:18:00,
2013-11-01 22:33:00,49.1,42.5,29.56,WNW,292,0.0,-999.0,78,-99.99,,,0.11,Acu-Link.com,2013-11-02 02:33:00,
2013-11-01 22:48:00,48.7,42.2,29.57,WNW,292,0.0,-999.0,78,-99.99,,,0.11,Acu-Link.com,2013-11-02 02:48:00,
2013-11-01 23:03:00,47.8,41.6,29.57,SE,135,0.0,-999.0,79,-99.99,,,0.11,Acu-Link.com,2013-11-02 03:03:00,
2013-11-01 23:18:00,47.3,41.1,29.57,SE,135,2.2,-999.0,79,-99.99,,,0.11,Acu-Link.com,2013-11-02 03:18:00,
2013-11-01 23:34:00,46.8,41.0,29.57,SE,135,0.0,-999.0,80,-99.99,,,0.11,Acu-Link.com,2013-11-02 03:34:00,
2013-11-01 23:49:00,46.2,40.7,29.57,SE,135,0.0,-999.0,81,-99.99,,,0.11,Acu-Link.com,2013-11-02 03:49:00,